Time;durP1;ratioP1;P1;durP2;ratioP2;P2;SDS_P1;SDS_P2;PMS_P1;PMS_P2;Temp;Humidity;BMP_temperature;BMP_pressure;BME280_temperature;BME280_humidity;BME280_pressure;Samples;Min_cycle;Max_cycle;Signal;HPM_P1;HPM_P2
2021/07/04 00:02:17;;;;;;;;;12.00;9.67;;;;;20.53;61.21;100943.09;6213730;22;45264;-89
2021/07/04 00:04:43;;;;;;;;;8.67;8.67;;;;;20.50;60.98;100937.22;6207366;22;45694;-90
2021/07/04 00:07:10;;;;;;;;;8.67;8.67;;;;;20.48;61.25;100934.66;6213394;22;45156;-90
2021/07/04 00:09:36;;;;;;;;;12.00;10.00;;;;;20.49;61.58;100933.72;6211443;22;45453;-90
2021/07/04 00:12:02;;;;;;;;;12.75;11.75;;;;;20.48;61.67;100929.38;6211505;22;45455;-89
2021/07/04 00:14:28;;;;;;;;;7.33;7.33;;;;;20.48;61.53;100931.16;6211606;22;47522;-89
2021/07/04 00:16:53;;;;;;;;;12.33;10.67;;;;;20.45;61.38;100924.31;6213225;22;45299;-90
2021/07/04 00:19:19;;;;;;;;;10.33;9.33;;;;;20.48;61.02;100928.53;6213069;22;45324;-89
2021/07/04 00:21:44;;;;;;;;;9.67;8.33;;;;;20.43;61.30;100924.41;6213912;22;45349;-89
2021/07/04 00:24:10;;;;;;;;;13.67;10.00;;;;;20.45;61.91;100926.13;6236824;22;46954;-90
2021/07/04 00:26:35;;;;;;;;;7.00;7.00;;;;;20.44;61.24;100927.91;6211412;22;45397;-90
2021/07/04 00:29:01;;;;;;;;;10.67;9.67;;;;;20.43;61.82;100924.41;6211485;22;45323;-89
2021/07/04 00:31:26;;;;;;;;;9.00;9.00;;;;;20.41;62.12;100918.41;6211825;22;45494;-90
2021/07/04 00:33:52;;;;;;;;;8.67;8.33;;;;;20.42;62.16;100925.38;6211435;22;47523;-90
2021/07/04 00:36:17;;;;;;;;;11.00;10.00;;;;;20.39;61.61;100909.78;6236973;22;45713;-90
2021/07/04 00:38:43;;;;;;;;;9.00;8.67;;;;;20.38;62.03;100902.81;6211543;22;45244;-90
2021/07/04 00:41:08;;;;;;;;;11.00;11.00;;;;;20.37;62.06;100903.75;6211627;22;45478;-90
2021/07/04 00:43:34;;;;;;;;;10.00;9.00;;;;;20.35;62.02;100896.88;6211205;22;47066;-89
2021/07/04 00:46:00;;;;;;;;;9.00;9.00;;;;;20.37;61.98;100902.91;6211216;22;45395;-90
2021/07/04 00:48:25;;;;;;;;;11.33;9.00;;;;;20.31;61.74;100896.28;6213273;22;45205;-90
2021/07/04 00:50:51;;;;;;;;;9.67;8.00;;;;;20.30;62.03;100905.16;6211445;22;45944;-89
2021/07/04 00:53:17;;;;;;;;;10.00;9.00;;;;;20.27;61.97;100903.59;6212674;22;46124;-89
2021/07/04 00:55:42;;;;;;;;;11.67;9.33;;;;;20.28;61.84;100907.09;6213205;22;45538;-89
2021/07/04 00:58:08;;;;;;;;;9.00;9.00;;;;;20.24;62.17;100901.22;6212470;22;45464;-90
2021/07/04 01:00:37;;;;;;;;;9.00;9.00;;;;;20.24;61.98;100895.06;6211014;22;45505;-90
2021/07/04 01:03:02;;;;;;;;;8.33;8.33;;;;;20.22;62.38;100895.16;6210679;22;47118;-90
2021/07/04 01:05:30;;;;;;;;;7.33;7.33;;;;;20.22;62.00;100899.63;6212862;22;45244;-90
2021/07/04 01:07:57;;;;;;;;;8.67;8.00;;;;;20.17;62.36;100889.38;6213049;22;45372;-90
2021/07/04 01:10:26;;;;;;;;;7.67;7.67;;;;;20.18;62.27;100892.88;6211176;22;45624;-89
2021/07/04 01:12:54;;;;;;;;;9.33;9.00;;;;;20.18;62.12;100896.34;6212574;22;45267;-90
2021/07/04 01:15:25;;;;;;;;;8.67;8.67;;;;;20.14;62.08;100885.16;6212570;22;45414;-89
2021/07/04 01:17:52;;;;;;;;;11.00;9.00;;;;;20.11;61.99;100890.69;6213058;22;45553;-89
2021/07/04 01:20:20;;;;;;;;;8.00;6.00;;;;;20.11;61.91;100882.78;6210868;22;45429;-89
2021/07/04 01:22:55;;;;;;;;;6.67;6.33;;;;;20.06;61.78;100886.69;6210788;22;48432;-89
2021/07/04 01:25:20;;;;;;;;;11.33;8.67;;;;;20.06;61.95;100890.19;6210570;22;45845;-89
2021/07/04 01:27:45;;;;;;;;;5.33;5.00;;;;;20.03;61.94;100885.97;6212911;22;45353;-89
2021/07/04 01:30:12;;;;;;;;;9.00;9.00;;;;;20.00;62.22;100886.19;6210977;22;45317;-89
2021/07/04 01:32:37;;;;;;;;;6.33;6.33;;;;;19.99;62.43;100886.31;6212104;22;45377;-89
2021/07/04 01:35:03;;;;;;;;;10.33;8.33;;;;;19.97;62.31;100885.59;6212363;22;45382;-89
2021/07/04 01:37:29;;;;;;;;;8.67;8.67;;;;;19.94;62.27;100883.16;6210960;22;45344;-89
2021/07/04 01:39:54;;;;;;;;;7.67;7.67;;;;;19.89;62.38;100881.69;6210845;22;45205;-89
2021/07/04 01:42:20;;;;;;;;;6.33;6.33;;;;;19.87;62.35;100880.13;6210586;22;47038;-89
2021/07/04 01:44:45;;;;;;;;;7.00;7.00;;;;;19.83;62.38;100876.84;6212550;22;45180;-89
2021/07/04 01:47:10;;;;;;;;;8.00;7.33;;;;;19.83;62.01;100871.56;6210754;22;45224;-90
2021/07/04 01:49:36;;;;;;;;;7.00;7.00;;;;;19.76;62.42;100873.81;6210688;22;45825;-89
2021/07/04 01:52:02;;;;;;;;;7.00;7.00;;;;;19.76;62.29;100881.72;6210332;22;46854;-89
2021/07/04 01:54:27;;;;;;;;;5.67;5.67;;;;;19.75;62.54;100868.63;6212653;22;45138;-90
2021/07/04 01:56:53;;;;;;;;;7.00;7.00;;;;;19.72;62.29;100874.16;6212252;22;45253;-89
2021/07/04 01:59:18;;;;;;;;;6.00;6.00;;;;;19.70;62.57;100868.13;6210793;22;45209;-89
2021/07/04 02:01:43;;;;;;;;;9.00;7.33;;;;;19.67;62.55;100863.09;6212248;22;45937;-89
2021/07/04 02:04:09;;;;;;;;;8.00;8.00;;;;;19.68;62.20;100875.34;6212127;22;45224;-89
2021/07/04 02:06:34;;;;;;;;;6.33;6.33;;;;;19.64;62.61;100866.78;6212655;22;45357;-89
2021/07/04 02:09:00;;;;;;;;;8.00;7.00;;;;;19.63;62.46;100868.56;6210467;22;45362;-89
2021/07/04 02:11:25;;;;;;;;;6.00;6.00;;;;;19.61;62.49;100862.56;6212167;22;45345;-89
2021/07/04 02:13:51;;;;;;;;;6.00;5.00;;;;;19.61;62.34;100870.50;6213377;22;45310;-89
2021/07/04 02:16:16;;;;;;;;;7.67;6.33;;;;;19.57;62.35;100861.09;6214051;22;45358;-88
2021/07/04 02:18:43;;;;;;;;;6.67;6.67;;;;;19.60;62.53;100871.47;6214088;22;45401;-89
2021/07/04 02:21:09;;;;;;;;;12.00;6.00;;;;;19.57;62.44;100868.16;6213783;22;45413;-89
2021/07/04 02:23:35;;;;;;;;;7.67;7.67;;;;;19.57;62.07;100874.31;6211834;22;45322;-88
2021/07/04 02:26:01;;;;;;;;;6.33;6.33;;;;;19.53;63.07;100869.38;6212048;22;45221;-88
2021/07/04 02:28:28;;;;;;;;;7.33;7.00;;;;;19.48;63.13;100874.97;6237773;22;45173;-88
2021/07/04 02:30:55;;;;;;;;;7.33;6.33;;;;;19.47;63.20;100866.22;6213542;22;46613;-89
2021/07/04 02:33:22;;;;;;;;;7.00;7.00;;;;;19.49;63.15;100869.56;6213639;22;45398;-89
2021/07/04 02:35:51;;;;;;;;;7.00;5.67;;;;;19.46;62.60;100864.53;6211489;22;44698;-89
2021/07/04 02:38:17;;;;;;;;;7.00;7.00;;;;;19.46;63.29;100861.03;6214411;22;45326;-89
2021/07/04 02:40:43;;;;;;;;;8.00;7.00;;;;;19.49;62.74;100863.47;6213573;22;45457;-89
2021/07/04 02:43:11;;;;;;;;;7.00;7.00;;;;;19.47;63.44;100858.28;6213624;22;45243;-89
2021/07/04 02:45:37;;;;;;;;;9.00;7.00;;;;;19.45;63.17;100856.72;6214027;22;45341;-89
2021/07/04 02:48:04;;;;;;;;;7.33;7.33;;;;;19.47;62.87;100858.28;6211991;22;45441;-89
2021/07/04 02:50:30;;;;;;;;;6.33;6.33;;;;;19.46;62.80;100859.25;6211307;22;49006;-89
2021/07/04 02:52:55;;;;;;;;;9.00;8.67;;;;;19.45;63.32;100859.38;6211644;22;45192;-89
2021/07/04 02:55:22;;;;;;;;;6.67;6.67;;;;;19.48;63.34;100862.63;6213830;22;45235;-89
2021/07/04 02:57:47;;;;;;;;;8.00;6.33;;;;;19.44;62.99;100855.88;6213835;22;45332;-89
2021/07/04 03:00:17;;;;;;;;;7.00;7.00;;;;;19.45;63.26;100848.81;6211105;22;47090;-89
2021/07/04 03:02:43;;;;;;;;;7.00;5.67;;;;;19.44;63.19;100850.59;6211520;22;45395;-89
2021/07/04 03:05:10;;;;;;;;;6.00;5.33;;;;;19.47;63.29;100855.66;6211119;22;45326;-89
2021/07/04 03:07:36;;;;;;;;;7.33;7.33;;;;;19.47;63.45;100852.16;6213785;22;45200;-89
2021/07/04 03:10:04;;;;;;;;;5.00;5.00;;;;;19.43;63.26;100848.91;6213485;22;46374;-89
2021/07/04 03:12:29;;;;;;;;;9.00;5.67;;;;;19.42;63.74;100841.94;6213542;22;45544;-90
2021/07/04 03:14:55;;;;;;;;;7.00;7.00;;;;;19.41;63.13;100836.78;6213630;22;45724;-89
2021/07/04 03:17:20;;;;;;;;;7.67;6.00;;;;;19.43;63.34;100842.78;6211939;22;45285;-88
2021/07/04 03:19:45;;;;;;;;;7.00;6.00;;;;;19.41;63.64;100842.91;6213022;22;45392;-89
2021/07/04 03:22:11;;;;;;;;;5.33;5.33;;;;;19.36;63.70;100847.69;6213561;22;45409;-89
2021/07/04 03:24:39;;;;;;;;;7.00;5.67;;;;;19.32;63.96;100847.06;6211278;22;45306;-89
2021/07/04 03:27:05;;;;;;;;;5.00;5.00;;;;;19.28;64.01;100842.94;6213808;22;45432;-88
2021/07/04 03:29:30;;;;;;;;;5.33;5.33;;;;;19.29;63.86;100835.84;6213268;22;46246;-89
2021/07/04 03:31:56;;;;;;;;;6.00;5.67;;;;;19.31;64.05;100840.06;6211607;22;45186;-88
2021/07/04 03:34:21;;;;;;;;;6.67;6.00;;;;;19.32;64.35;100838.28;6211768;22;45440;-89
2021/07/04 03:36:47;;;;;;;;;5.00;5.00;;;;;19.32;64.26;100831.22;6213748;22;45460;-89
2021/07/04 03:39:12;;;;;;;;;5.67;5.67;;;;;19.36;64.01;100829.19;6213274;22;45836;-89
2021/07/04 03:41:37;;;;;;;;;6.00;6.00;;;;;19.36;64.22;100834.47;6213824;22;45133;-90
2021/07/04 03:44:03;;;;;;;;;6.00;6.00;;;;;19.29;64.18;100825.31;6212295;22;45237;-91
2021/07/04 03:46:29;;;;;;;;;5.00;5.00;;;;;19.31;64.23;100823.41;6214583;22;45389;-90
2021/07/04 03:48:55;;;;;;;;;5.00;5.00;;;;;19.29;64.34;100823.50;6213742;22;45515;-90
2021/07/04 03:51:21;;;;;;;;;6.00;6.00;;;;;19.28;64.97;100821.84;6211486;22;45599;-91
2021/07/04 03:53:47;;;;;;;;;8.00;6.33;;;;;19.26;64.77;100818.47;6212385;22;45394;-90
2021/07/04 03:56:14;;;;;;;;;6.33;6.00;;;;;19.23;65.35;100811.63;6212035;22;45403;-91
2021/07/04 03:58:40;;;;;;;;;5.67;4.33;;;;;19.20;65.81;100819.75;6212977;22;45821;-90
2021/07/04 04:01:05;;;;;;;;;6.67;6.00;;;;;19.17;65.11;100813.84;6211601;22;45327;-91
2021/07/04 04:03:31;;;;;;;;;5.33;5.33;;;;;19.19;65.52;100830.41;6211953;22;45205;-90
2021/07/04 04:05:57;;;;;;;;;5.00;5.00;;;;;19.15;65.62;100827.13;6214107;22;45225;-91
2021/07/04 04:08:24;;;;;;;;;5.00;5.00;;;;;19.15;65.94;100823.66;6213503;22;45582;-91
2021/07/04 04:10:50;;;;;;;;;4.33;4.33;;;;;19.17;66.25;100830.50;6212209;22;45487;-91
2021/07/04 04:13:16;;;;;;;;;5.00;4.00;;;;;19.14;65.90;100843.91;6212076;22;45326;-91
2021/07/04 04:15:44;;;;;;;;;8.00;5.33;;;;;19.02;66.36;100837.69;6212989;22;45352;-93
2021/07/04 04:18:14;;;;;;;;;5.00;4.00;;;;;18.99;66.29;100837.06;6212985;22;48008;-92
2021/07/04 04:24:33;;;;;;;;;6.33;3.67;;;;;18.93;66.48;100862.06;6151948;23;45727;-93
2021/07/04 04:27:11;;;;;;;;;4.00;3.00;;;;;18.94;66.94;100869.03;6127660;23;45295;-93
2021/07/04 04:30:25;;;;;;;;;3.33;3.00;;;;;18.91;66.22;100871.88;6127377;23;47288;-93
2021/07/04 04:33:04;;;;;;;;;;;;;;;;;;;;;
2021/07/04 04:36:15;;;;;;;;;2.00;2.00;;;;;18.73;66.88;100852.88;6060188;23;67034;-94
2021/07/04 04:38:54;;;;;;;;;;;;;;;;;;;;;
2021/07/04 04:41:37;;;;;;;;;3.00;3.00;;;;;18.69;67.66;100841.72;6061144;23;74804;-94
2021/07/04 04:44:20;;;;;;;;;3.67;3.00;;;;;18.66;67.54;100826.13;6039223;23;45442;-92
2021/07/04 04:47:39;;;;;;;;;;;;;;;;;;;;;
2021/07/04 04:51:02;;;;;;;;;;;;;;;;;;;;;
2021/07/04 04:53:29;;;;;;;;;;;;;;;;;;;;;
2021/07/04 04:56:07;;;;;;;;;5.00;4.00;;;;;18.88;66.88;100793.00;6061459;23;71597;-93
2021/07/04 04:58:53;;;;;;;;;;;;;;;;;;;;;
2021/07/04 05:01:32;;;;;;;;;;;;;;;;;;;;;
2021/07/04 05:04:10;;;;;;;;;7.00;2.67;;;;;19.04;66.99;100804.19;6194329;22;75280;-92
2021/07/04 05:06:51;;;;;;;;;;;;;;;;;;;;;
2021/07/04 05:09:27;;;;;;;;;;;;;;;;;;;;;
2021/07/04 05:12:03;;;;;;;;;;;;;;;;;;;;;
2021/07/04 05:14:31;;;;;;;;;3.67;3.67;;;;;19.15;66.79;100818.38;6213406;22;74569;-92
2021/07/04 05:17:06;;;;;;;;;3.00;3.00;;;;;19.13;66.76;100817.66;6212601;22;45385;-93
2021/07/04 05:19:39;;;;;;;;;6.00;3.00;;;;;19.15;66.41;100827.13;6214353;22;45345;-93
2021/07/04 05:22:04;;;;;;;;;4.00;3.00;;;;;19.15;66.61;100831.56;6212875;22;45312;-92
2021/07/04 05:24:30;;;;;;;;;4.00;3.00;;;;;19.17;66.79;100832.31;6212661;22;46864;-92
2021/07/04 05:26:55;;;;;;;;;1.67;1.67;;;;;19.15;66.61;100831.56;6212656;22;45332;-92
2021/07/04 05:29:23;;;;;;;;;3.00;3.00;;;;;19.17;66.45;100841.06;6212582;22;44666;-92
2021/07/04 05:31:48;;;;;;;;;1.67;1.67;;;;;19.19;66.48;100839.16;6213137;22;45406;-92
2021/07/04 05:34:14;;;;;;;;;4.00;3.00;;;;;19.18;66.72;100842.75;6212322;22;47053;-92
2021/07/04 05:36:39;;;;;;;;;4.33;4.00;;;;;19.15;66.56;100844.75;6212295;22;45729;-93
2021/07/04 05:39:05;;;;;;;;;3.67;2.00;;;;;19.09;67.02;100844.25;6212588;22;45355;-92
2021/07/04 05:41:30;;;;;;;;;3.00;3.00;;;;;19.07;66.98;100830.31;6212752;22;45229;-92
2021/07/04 05:43:56;;;;;;;;;3.00;3.00;;;;;19.06;66.89;100839.19;6212480;22;46953;-92
2021/07/04 05:46:23;;;;;;;;;6.00;4.67;;;;;19.09;67.14;100838.13;6211985;22;45335;-92
2021/07/04 05:48:50;;;;;;;;;2.67;2.67;;;;;19.06;67.62;100822.50;6213620;22;45625;-92
2021/07/04 05:51:16;;;;;;;;;3.00;3.00;;;;;19.11;66.94;100830.13;6213813;22;45098;-92
2021/07/04 05:53:42;;;;;;;;;5.67;4.33;;;;;19.06;67.34;100827.78;6213660;22;46717;-92
2021/07/04 05:56:07;;;;;;;;;4.00;3.33;;;;;19.04;67.58;100824.41;6213621;22;45251;-92
2021/07/04 05:58:33;;;;;;;;;4.00;4.00;;;;;19.00;67.68;100820.28;6213146;22;45316;-93
2021/07/04 06:00:58;;;;;;;;;8.00;3.00;;;;;19.03;67.58;100820.06;6215963;22;45355;-92
2021/07/04 06:03:23;;;;;;;;;6.00;3.00;;;;;19.05;67.67;100816.41;6213727;22;47771;-92
2021/07/04 06:05:49;;;;;;;;;4.00;3.33;;;;;19.11;67.76;100819.56;6213946;22;45825;-92
2021/07/04 06:08:14;;;;;;;;;4.00;4.00;;;;;19.12;67.48;100814.16;6213610;22;45400;-93
2021/07/04 06:10:44;;;;;;;;;4.00;3.67;;;;;19.11;67.69;100819.56;6214453;22;45497;-92
2021/07/04 06:13:09;;;;;;;;;5.33;4.33;;;;;19.11;67.28;100827.47;6213825;22;47245;-93
2021/07/04 06:15:35;;;;;;;;;4.33;4.33;;;;;19.05;67.53;100820.81;6212810;22;45206;-93
2021/07/04 06:18:01;;;;;;;;;5.00;4.67;;;;;19.12;67.48;100823.88;6213882;22;45188;-92
2021/07/04 06:20:26;;;;;;;;;5.00;4.00;;;;;19.06;67.88;100823.34;6213817;22;45672;-92
2021/07/04 06:22:54;;;;;;;;;6.00;6.00;;;;;19.06;67.48;100818.09;6213744;22;48239;-93
2021/07/04 06:25:20;;;;;;;;;5.00;5.00;;;;;19.05;68.06;100816.41;6213553;22;45540;-93
2021/07/04 06:27:46;;;;;;;;;5.00;5.00;;;;;19.12;67.68;100835.25;6213990;22;45011;-93
2021/07/04 06:30:15;;;;;;;;;6.00;6.00;;;;;19.10;67.46;100831.91;6213538;22;45328;-92
2021/07/04 06:32:41;;;;;;;;;4.00;4.00;;;;;19.09;68.19;100831.06;6213768;22;47144;-91
2021/07/04 06:35:12;;;;;;;;;5.00;5.00;;;;;19.08;68.16;100823.25;6212980;22;45198;-90
2021/07/04 06:37:37;;;;;;;;;4.33;4.33;;;;;19.07;67.93;100832.13;6213484;22;45623;-93
2021/07/04 06:40:05;;;;;;;;;5.00;5.00;;;;;19.04;67.91;100821.78;6215140;22;45365;-92
2021/07/04 06:42:33;;;;;;;;;4.00;4.00;;;;;19.02;68.18;100815.75;6215341;22;45188;-93
2021/07/04 06:45:09;;;;;;;;;7.67;4.33;;;;;19.02;67.72;100813.13;6213383;22;45350;-93
2021/07/04 06:47:40;;;;;;;;;4.00;4.00;;;;;18.93;67.54;100814.63;6213969;22;45621;-93
2021/07/04 06:50:08;;;;;;;;;4.33;4.33;;;;;18.93;68.11;100815.44;6213895;22;45252;-92
2021/07/04 06:52:34;;;;;;;;;3.67;3.67;;;;;18.94;67.76;100806.56;6213298;22;48050;-93
2021/07/04 06:55:06;;;;;;;;;5.00;4.33;;;;;18.94;68.05;100805.75;6213134;22;45415;-93
2021/07/04 06:57:31;;;;;;;;;2.00;2.00;;;;;18.94;67.78;100809.22;6212628;22;45395;-93
2021/07/04 06:59:59;;;;;;;;;4.67;4.67;;;;;18.96;68.00;100809.09;6213293;22;44690;-93
2021/07/04 07:02:26;;;;;;;;;3.33;3.33;;;;;18.98;68.22;100801.09;6213617;22;47970;-93
2021/07/04 07:04:57;;;;;;;;;3.67;3.67;;;;;19.06;68.17;100819.88;6213694;22;45311;-93
2021/07/04 07:07:25;;;;;;;;;4.00;4.00;;;;;19.11;67.91;100820.38;6213160;22;45248;-92
2021/07/04 07:09:55;;;;;;;;;4.67;3.33;;;;;19.14;68.22;100816.69;6213954;22;45428;-93
2021/07/04 07:12:21;;;;;;;;;3.00;3.00;;;;;19.19;67.92;100819.84;6213220;22;47065;-92
2021/07/04 07:14:48;;;;;;;;;4.00;4.00;;;;;19.22;67.79;100817.81;6213557;22;45327;-92
2021/07/04 07:17:14;;;;;;;;;3.33;3.33;;;;;19.30;67.85;100819.91;6213057;22;45572;-93
2021/07/04 07:19:40;;;;;;;;;4.00;4.00;;;;;19.34;67.74;100818.75;6213095;22;45459;-92
2021/07/04 07:22:05;;;;;;;;;5.00;4.33;;;;;19.40;67.31;100821.91;6213209;22;47153;-92
2021/07/04 07:24:31;;;;;;;;;3.00;2.00;;;;;19.38;67.13;100826.47;6213438;22;45433;-93
2021/07/04 07:26:57;;;;;;;;;3.00;3.00;;;;;19.38;67.53;100824.66;6213935;22;45360;-92
2021/07/04 07:29:22;;;;;;;;;5.00;4.00;;;;;19.37;67.36;100822.97;6213414;22;45557;-91
2021/07/04 07:31:48;;;;;;;;;5.00;5.00;;;;;19.40;67.35;100832.47;6238562;22;47932;-92
2021/07/04 07:34:14;;;;;;;;;3.00;2.00;;;;;19.35;67.19;100833.63;6213291;22;45402;-92
2021/07/04 07:36:40;;;;;;;;;3.67;3.67;;;;;19.35;67.45;100833.63;6213191;22;45284;-92
2021/07/04 07:39:06;;;;;;;;;3.67;3.67;;;;;19.35;67.55;100835.44;6213205;22;45471;-92
2021/07/04 07:41:32;;;;;;;;;4.00;4.00;;;;;19.39;67.33;100839.53;6212747;22;48082;-93
2021/07/04 07:44:00;;;;;;;;;3.00;3.00;;;;;19.38;67.31;100842.28;6212859;22;45271;-92
2021/07/04 07:46:26;;;;;;;;;6.00;3.00;;;;;19.37;66.96;100841.44;6213013;22;45688;-92
2021/07/04 07:48:51;;;;;;;;;5.00;5.00;;;;;19.34;67.36;100849.56;6213069;22;45446;-91
2021/07/04 07:51:17;;;;;;;;;5.00;5.00;;;;;19.29;67.08;100852.53;6212729;22;47918;-92
2021/07/04 07:53:43;;;;;;;;;3.67;3.33;;;;;19.20;66.91;100846.13;6212626;22;45360;-92
2021/07/04 07:56:08;;;;;;;;;4.00;3.33;;;;;19.14;67.33;100836.00;6238093;22;45454;-91
2021/07/04 07:58:34;;;;;;;;;5.00;5.00;;;;;19.12;67.38;100845.81;6212581;22;45280;-91
2021/07/04 08:01:00;;;;;;;;;6.33;6.33;;;;;19.08;67.62;100845.19;6214396;22;46333;-92
2021/07/04 08:03:25;;;;;;;;;5.00;4.67;;;;;19.11;67.43;100844.13;6212395;22;45683;-91
2021/07/04 08:05:50;;;;;;;;;3.33;3.33;;;;;19.13;67.79;100854.56;6212905;22;45257;-91
2021/07/04 08:08:16;;;;;;;;;4.67;3.67;;;;;19.13;67.23;100857.22;6212857;22;45154;-91
2021/07/04 08:10:42;;;;;;;;;6.67;4.00;;;;;19.09;67.36;100854.81;6212395;22;47746;-92
2021/07/04 08:13:08;;;;;;;;;4.00;2.00;;;;;19.08;67.67;100842.53;6212340;22;45765;-91
2021/07/04 08:15:33;;;;;;;;;2.33;2.33;;;;;19.13;67.44;100846.66;6212220;22;45256;-91
2021/07/04 08:17:58;;;;;;;;;2.33;2.33;;;;;19.15;67.40;100839.47;6212861;22;45398;-94
2021/07/04 08:20:24;;;;;;;;;2.67;2.33;;;;;19.21;67.21;100845.16;6212283;22;48031;-91
2021/07/04 08:22:50;;;;;;;;;2.00;2.00;;;;;19.19;67.11;100835.66;6212134;22;45905;-90
2021/07/04 08:25:16;;;;;;;;;3.00;3.00;;;;;19.27;67.21;100822.78;6212173;22;45216;-91
2021/07/04 08:27:42;;;;;;;;;3.00;3.00;;;;;19.33;66.88;100809.16;6214290;22;45273;-91
2021/07/04 08:30:11;;;;;;;;;2.00;2.00;;;;;19.38;66.99;100803.53;6211740;22;47271;-90
2021/07/04 08:32:36;;;;;;;;;4.67;3.00;;;;;19.45;67.20;100791.56;6211791;22;45300;-91
2021/07/04 08:35:04;;;;;;;;;3.00;3.00;;;;;19.48;66.66;100779.94;6211873;22;45415;-90
2021/07/04 08:37:29;;;;;;;;;5.00;2.33;;;;;19.56;66.76;100787.31;6212339;22;45490;-90
2021/07/04 08:39:55;;;;;;;;;2.67;2.67;;;;;19.67;66.49;100787.38;6211188;22;47953;-90
2021/07/04 08:42:20;;;;;;;;;2.00;2.00;;;;;19.75;65.81;100786.78;6211638;22;45773;-90
2021/07/04 08:44:50;;;;;;;;;4.00;4.00;;;;;19.82;66.15;100785.41;6211766;22;45410;-90
2021/07/04 08:47:17;;;;;;;;;3.00;3.00;;;;;19.95;65.84;100787.94;6237288;22;45295;-90
2021/07/04 08:49:42;;;;;;;;;3.00;3.00;;;;;20.07;65.88;100791.50;6211240;22;47665;-90
2021/07/04 08:52:08;;;;;;;;;1.67;1.67;;;;;20.21;66.24;100797.53;6211275;22;45913;-90
2021/07/04 08:54:33;;;;;;;;;2.00;2.00;;;;;20.32;65.16;100797.53;6211048;22;45296;-90
2021/07/04 08:56:58;;;;;;;;;1.00;1.00;;;;;20.42;63.85;100803.00;6213653;22;45189;-90
2021/07/04 08:59:24;;;;;;;;;1.67;0.67;;;;;20.49;61.62;100812.13;6212919;22;45437;-90
2021/07/04 09:01:50;;;;;;;;;1.00;1.00;;;;;20.50;61.20;100805.03;6211182;22;45267;-90
2021/07/04 09:04:19;;;;;;;;;0.33;0.00;;;;;20.51;60.83;100796.16;6211252;22;45429;-89
2021/07/04 09:06:47;;;;;;;;;1.00;1.00;;;;;20.56;60.69;100810.69;6211910;22;45406;-90
2021/07/04 09:09:15;;;;;;;;;1.00;1.00;;;;;20.59;60.92;100798.19;6211267;22;47871;-90
2021/07/04 09:12:01;;;;;;;;;1.67;1.67;;;;;20.64;60.00;100806.63;6211489;22;45231;-90
2021/07/04 09:14:36;;;;;;;;;2.33;1.00;;;;;20.72;59.88;100808.63;6211249;22;45325;-90
2021/07/04 09:17:09;;;;;;;;;0.67;0.67;;;;;20.75;60.23;100805.75;6213251;22;45254;-89
2021/07/04 09:19:34;;;;;;;;;0.00;0.00;;;;;20.86;58.76;100804.94;6212497;22;45646;-90
2021/07/04 09:22:06;;;;;;;;;0.00;0.00;;;;;20.90;58.16;100801.94;6211230;22;45332;-90
2021/07/04 09:24:37;;;;;;;;;0.00;0.00;;;;;20.90;58.68;100796.66;6212182;22;45452;-90
2021/07/04 09:27:04;;;;;;;;;1.33;0.00;;;;;20.96;58.00;100801.47;6214828;22;45385;-89
2021/07/04 09:29:45;;;;;;;;;1.00;1.00;;;;;21.02;57.71;100794.81;6213422;22;46525;-90
2021/07/04 09:32:29;;;;;;;;;0.00;0.00;;;;;21.08;57.10;100790.88;6212170;22;45307;-90
2021/07/04 09:34:57;;;;;;;;;0.00;0.00;;;;;21.15;57.25;100784.09;6212197;22;45320;-90
2021/07/04 09:37:35;;;;;;;;;1.00;1.00;;;;;21.22;56.59;100782.69;6214847;22;45228;-90
2021/07/04 09:40:23;;;;;;;;;1.33;1.33;;;;;21.32;56.98;100776.63;6213435;22;45250;-90
2021/07/04 09:42:59;;;;;;;;;3.67;1.00;;;;;21.36;56.26;100770.13;6212159;22;45691;-90
2021/07/04 09:45:40;;;;;;;;;1.00;1.00;;;;;21.43;56.84;100765.16;6213998;22;45232;-89
2021/07/04 09:48:06;;;;;;;;;0.33;0.33;;;;;21.50;56.67;100776.94;6214737;22;45152;-90
2021/07/04 09:50:38;;;;;;;;;1.00;1.00;;;;;21.54;56.89;100762.47;6214109;22;46082;-90
2021/07/04 09:53:03;;;;;;;;;1.00;1.00;;;;;21.55;56.93;100764.16;6214282;22;45232;-89
2021/07/04 09:55:30;;;;;;;;;2.00;1.00;;;;;21.52;57.15;100761.75;6211389;22;45212;-90
2021/07/04 09:58:06;;;;;;;;;1.00;1.00;;;;;21.50;55.87;100774.28;6212086;22;45490;-89
2021/07/04 10:00:35;;;;;;;;;0.00;0.00;;;;;21.36;56.03;100783.34;6213676;22;46119;-90
2021/07/04 10:03:12;;;;;;;;;1.00;1.00;;;;;21.19;56.97;100785.56;6212832;22;45240;-90
2021/07/04 10:05:53;;;;;;;;;6.00;1.33;;;;;21.00;57.54;100790.63;6214319;22;45337;-90
2021/07/04 10:08:32;;;;;;;;;1.67;1.00;;;;;20.83;58.46;100788.34;6212873;22;45438;-91
2021/07/04 10:11:01;;;;;;;;;1.00;1.00;;;;;20.70;59.24;100779.69;6212496;22;47167;-91
2021/07/04 10:13:28;;;;;;;;;1.00;1.00;;;;;20.62;59.26;100777.66;6214644;22;45282;-91
2021/07/04 10:15:54;;;;;;;;;1.33;1.33;;;;;20.62;59.50;100784.72;6212603;22;45497;-91
2021/07/04 10:18:20;;;;;;;;;0.00;0.00;;;;;20.60;59.68;100782.19;6238056;22;45514;-90
2021/07/04 10:20:48;;;;;;;;;2.67;1.33;;;;;20.62;59.90;100785.59;6214212;22;45431;-90
2021/07/04 10:23:17;;;;;;;;;2.00;1.33;;;;;20.66;59.81;100783.53;6212491;22;45297;-90
2021/07/04 10:25:43;;;;;;;;;3.00;3.00;;;;;20.67;59.92;100775.50;6212172;22;45256;-91
2021/07/04 10:28:12;;;;;;;;;2.00;2.00;;;;;20.73;59.96;100768.03;6214503;22;45196;-91
2021/07/04 10:30:39;;;;;;;;;1.00;1.00;;;;;20.78;59.52;100768.53;6212358;22;47057;-90
2021/07/04 10:33:13;;;;;;;;;2.67;1.67;;;;;20.87;60.69;100775.75;6211705;22;45827;-90
2021/07/04 10:35:59;;;;;;;;;2.00;2.00;;;;;21.05;60.10;100773.44;6212151;22;45349;-90
2021/07/04 10:38:25;;;;;;;;;1.00;1.00;;;;;21.28;59.51;100760.16;6212598;22;45522;-90
2021/07/04 10:41:07;;;;;;;;;1.67;1.67;;;;;21.44;58.56;100762.38;6212117;22;48111;-90
2021/07/04 10:43:52;;;;;;;;;1.67;1.67;;;;;21.62;58.09;100760.03;6211988;22;45275;-90
2021/07/04 10:46:19;;;;;;;;;1.33;1.33;;;;;21.75;58.36;100759.03;6212336;22;45386;-91
2021/07/04 10:48:56;;;;;;;;;2.00;2.00;;;;;21.96;58.13;100758.19;6237971;22;45410;-90
2021/07/04 10:51:23;;;;;;;;;2.00;1.67;;;;;22.09;57.89;100750.06;6212253;22;47337;-90
2021/07/04 10:53:52;;;;;;;;;2.33;1.33;;;;;22.27;56.77;100751.13;6214224;22;45210;-91
2021/07/04 10:56:33;;;;;;;;;1.00;1.00;;;;;22.41;56.45;100751.78;6212687;22;45243;-90
2021/07/04 10:59:04;;;;;;;;;1.67;1.33;;;;;22.40;56.43;100758.06;6208817;22;45407;-91
2021/07/04 11:01:52;;;;;;;;;3.00;1.33;;;;;22.34;55.61;100747.94;6235616;22;47255;-91
2021/07/04 11:04:32;;;;;;;;;2.00;1.33;;;;;22.29;55.80;100766.91;6211850;22;45191;-92
2021/07/04 11:07:00;;;;;;;;;1.67;1.00;;;;;22.13;55.61;100752.31;6210228;22;45402;-90
2021/07/04 11:09:55;;;;;;;;;0.67;0.67;;;;;21.99;55.32;100750.00;6235791;22;45493;-91
2021/07/04 11:12:30;;;;;;;;;1.33;0.00;;;;;21.81;55.01;100747.09;6210935;22;46477;-89
2021/07/04 11:15:10;;;;;;;;;1.00;1.00;;;;;21.67;55.97;100750.88;6209297;22;45402;-91
2021/07/04 11:17:58;;;;;;;;;0.67;0.67;;;;;21.62;56.47;100749.44;6209604;22;45414;-91
2021/07/04 11:20:50;;;;;;;;;3.33;1.00;;;;;21.61;57.40;100733.66;6210664;22;45421;-91
2021/07/04 11:23:25;;;;;;;;;1.00;1.00;;;;;21.63;57.21;100740.50;6209012;22;48322;-90
2021/07/04 11:25:53;;;;;;;;;2.67;2.00;;;;;21.70;57.18;100732.94;6208692;22;45826;-90
2021/07/04 11:28:21;;;;;;;;;0.33;0.33;;;;;21.82;57.79;100727.56;6209168;22;45274;-90
2021/07/04 11:30:59;;;;;;;;;1.00;1.00;;;;;22.09;57.66;100729.72;6209371;22;45535;-90
2021/07/04 11:33:38;;;;;;;;;1.00;1.00;;;;;22.35;56.96;100729.28;6211454;22;46218;-90
2021/07/04 11:36:30;;;;;;;;;1.00;1.00;;;;;22.51;56.28;100727.94;6210005;22;45281;-90
2021/07/04 11:38:57;;;;;;;;;2.67;2.00;;;;;22.63;56.12;100715.47;6207269;22;45399;-91
2021/07/04 11:41:23;;;;;;;;;2.00;2.00;;;;;22.85;56.19;100718.88;6212276;22;45268;-90
2021/07/04 11:43:50;;;;;;;;;3.00;3.00;;;;;22.99;56.04;100717.66;6208528;22;48048;-90
2021/07/04 11:46:18;;;;;;;;;0.67;0.67;;;;;23.07;55.25;100701.84;6211785;22;45192;-90
2021/07/04 11:48:52;;;;;;;;;1.00;1.00;;;;;23.14;53.95;100708.28;6210882;22;45229;-89
2021/07/04 11:51:50;;;;;;;;;1.67;1.67;;;;;23.13;54.09;100703.13;6212949;22;45336;-90